createdAt,value
2023-02-27T00:02:08.379Z,33.38
2023-02-27T00:04:35.838Z,31.47
2023-02-27T00:07:02.987Z,30.63
2023-02-27T00:09:32.748Z,30.68
2023-02-27T00:12:00.184Z,31.78
2023-02-27T00:14:27.424Z,30.71
2023-02-27T00:16:54.547Z,30.76
2023-02-27T00:19:21.989Z,31.86
2023-02-27T00:21:49.183Z,31.97
2023-02-27T00:24:16.361Z,31.43
2023-02-27T00:26:43.829Z,32.98
2023-02-27T00:29:11.015Z,34.10
2023-02-27T00:31:38.204Z,32.32
2023-02-27T00:34:05.704Z,30.94
2023-02-27T00:36:32.932Z,31.37
2023-02-27T00:39:00.103Z,31.62
2023-02-27T00:41:27.969Z,32.47
2023-02-27T00:43:55.300Z,32.94
2023-02-27T00:46:22.482Z,31.67
2023-02-27T00:48:51.438Z,33.08
2023-02-27T00:51:20.270Z,32.47
2023-02-27T00:53:47.424Z,33.08
2023-02-27T00:56:15.322Z,32.22
2023-02-27T00:58:42.454Z,34.40
2023-02-27T01:01:09.658Z,34.77
2023-02-27T01:03:37.124Z,33.45
2023-02-27T01:06:04.506Z,34.02
2023-02-27T01:08:31.811Z,34.22
2023-02-27T01:10:59.280Z,35.53
2023-02-27T01:13:28.832Z,35.43
2023-02-27T01:15:56.051Z,33.25
2023-02-27T01:18:23.658Z,33.14
2023-02-27T01:20:53.950Z,34.74
2023-02-27T01:23:21.710Z,35.19
2023-02-27T01:25:50.099Z,33.76
2023-02-27T01:28:17.393Z,34.08
2023-02-27T01:30:44.602Z,35.80
2023-02-27T01:33:14.219Z,35.30
2023-02-27T01:35:41.372Z,36.66
2023-02-27T01:38:08.566Z,35.09
2023-02-27T01:40:39.739Z,34.10
2023-02-27T01:43:10.322Z,36.40
2023-02-27T01:45:41.553Z,34.33
2023-02-27T01:48:08.732Z,33.46
2023-02-27T01:50:36.378Z,33.66
2023-02-27T01:53:04.733Z,34.13
2023-02-27T01:55:32.738Z,33.03
2023-02-27T01:58:00.284Z,32.72
2023-02-27T02:00:27.777Z,33.90
2023-02-27T02:02:57.555Z,33.21
2023-02-27T02:05:24.704Z,32.37
2023-02-27T02:07:51.866Z,32.31
2023-02-27T02:10:19.504Z,31.53
2023-02-27T02:12:46.967Z,32.96
2023-02-27T02:15:14.195Z,31.37
2023-02-27T02:17:45.446Z,31.82
2023-02-27T02:20:37.819Z,31.99
2023-02-27T02:23:14.162Z,32.03
2023-02-27T02:25:50.767Z,31.74
2023-02-27T02:28:42.185Z,31.02
2023-02-27T02:31:28.789Z,31.73
2023-02-27T02:33:56.198Z,31.03
2023-02-27T02:36:23.701Z,31.83
2023-02-27T02:38:50.845Z,31.05
2023-02-27T02:41:20.471Z,29.96
2023-02-27T02:43:55.986Z,30.07
2023-02-27T02:46:49.758Z,31.05
2023-02-27T02:49:20.476Z,31.60
2023-02-27T02:51:55.977Z,31.78
2023-02-27T02:54:42.194Z,32.73
2023-02-27T02:57:10.911Z,32.94
2023-02-27T02:59:49.715Z,32.23
2023-02-27T03:02:27.646Z,31.03
2023-02-27T03:04:56.836Z,31.40
2023-02-27T03:07:26.215Z,31.44
2023-02-27T03:09:54.151Z,32.04
2023-02-27T03:12:22.749Z,33.11
2023-02-27T03:14:55.496Z,32.18
2023-02-27T03:17:25.272Z,31.90
2023-02-27T03:19:55.113Z,31.45
2023-02-27T03:22:24.081Z,31.54
2023-02-27T03:24:51.947Z,30.62
2023-02-27T03:27:20.026Z,31.18
2023-02-27T03:29:58.498Z,31.37
2023-02-27T03:32:31.871Z,31.45
2023-02-27T03:34:59.506Z,30.49
2023-02-27T03:37:30.059Z,31.46
2023-02-27T03:40:01.580Z,30.49
2023-02-27T03:42:31.827Z,30.60
2023-02-27T03:44:59.263Z,30.52
2023-02-27T03:47:26.459Z,30.67
2023-02-27T03:49:54.117Z,30.33
2023-02-27T03:52:21.412Z,30.42
2023-02-27T03:55:02.294Z,30.66
2023-02-27T03:57:30.284Z,31.97
2023-02-27T03:59:57.963Z,32.39
2023-02-27T04:02:25.163Z,31.99
2023-02-27T04:04:55.788Z,32.34
2023-02-27T04:07:31.905Z,32.17
2023-02-27T04:10:13.565Z,32.59
2023-02-27T04:12:40.812Z,31.84
2023-02-27T04:15:18.235Z,32.58
2023-02-27T04:18:14.876Z,34.23
2023-02-27T04:20:46.491Z,35.05
2023-02-27T04:23:24.313Z,33.83
2023-02-27T04:26:05.985Z,32.69
2023-02-27T04:28:47.812Z,33.56
2023-02-27T04:31:18.366Z,32.05
2023-02-27T04:33:45.546Z,33.04
2023-02-27T04:36:14.260Z,31.39
2023-02-27T04:38:44.584Z,30.97
2023-02-27T04:41:13.156Z,30.91
2023-02-27T04:43:40.915Z,31.20
2023-02-27T04:46:09.192Z,30.91
2023-02-27T04:48:37.832Z,31.55
2023-02-27T04:51:12.974Z,30.92
2023-02-27T04:53:47.971Z,31.31
2023-02-27T04:56:20.646Z,31.74
2023-02-27T04:58:52.981Z,31.99
2023-02-27T05:01:23.028Z,30.92
2023-02-27T05:03:51.531Z,30.54
2023-02-27T05:06:18.903Z,30.94
2023-02-27T05:08:49.018Z,31.74
2023-02-27T05:11:34.104Z,30.63
2023-02-27T05:14:08.383Z,30.45
2023-02-27T05:16:37.006Z,31.22
2023-02-27T05:19:04.173Z,29.30
2023-02-27T05:21:36.267Z,30.00
2023-02-27T05:24:09.747Z,30.09
2023-02-27T05:26:55.692Z,30.30
2023-02-27T05:29:32.370Z,30.46
2023-02-27T05:32:26.137Z,30.44
2023-02-27T05:35:12.333Z,29.72
2023-02-27T05:37:43.762Z,31.17
2023-02-27T05:40:12.520Z,29.96
2023-02-27T05:43:03.203Z,30.30
2023-02-27T05:45:32.051Z,31.74
2023-02-27T05:48:00.712Z,30.86
2023-02-27T05:50:29.530Z,30.01
2023-02-27T05:52:58.436Z,31.97
2023-02-27T05:55:58.181Z,31.38
2023-02-27T05:58:54.704Z,32.70
2023-02-27T06:01:21.886Z,30.53
2023-02-27T06:03:49.347Z,31.18
2023-02-27T06:06:17.148Z,31.79
2023-02-27T06:08:44.708Z,32.68
2023-02-27T06:11:13.275Z,31.29
2023-02-27T06:13:42.100Z,32.19
2023-02-27T06:16:10.634Z,32.28
2023-02-27T06:18:38.096Z,31.70
2023-02-27T06:21:05.376Z,30.26
2023-02-27T06:23:32.681Z,31.46
2023-02-27T06:26:00.153Z,31.07
2023-02-27T06:28:27.316Z,30.09
2023-02-27T06:30:55.099Z,30.39
2023-02-27T06:33:23.295Z,29.51
2023-02-27T06:35:50.527Z,30.23
2023-02-27T06:38:17.826Z,28.67
2023-02-27T06:40:45.342Z,29.81
2023-02-27T06:43:12.551Z,29.96
2023-02-27T06:45:39.694Z,28.86
2023-02-27T06:48:07.122Z,29.00
2023-02-27T06:50:34.316Z,28.72
2023-02-27T06:53:01.487Z,29.05
2023-02-27T06:55:28.934Z,28.43
2023-02-27T06:57:56.101Z,27.90
2023-02-27T07:00:23.421Z,27.79
2023-02-27T07:02:50.836Z,26.75
2023-02-27T07:05:18.223Z,26.56
2023-02-27T07:07:45.458Z,26.39
2023-02-27T07:10:13.471Z,26.01
2023-02-27T07:12:40.875Z,25.48
2023-02-27T07:15:08.392Z,25.27
2023-02-27T07:17:35.856Z,26.11
2023-02-27T07:20:03.286Z,26.20
2023-02-27T07:22:30.504Z,25.36
2023-02-27T07:24:57.953Z,24.55
2023-02-27T07:27:25.167Z,25.42
2023-02-27T07:29:52.845Z,26.10
2023-02-27T07:32:20.392Z,26.81
2023-02-27T07:34:47.901Z,26.83
2023-02-27T07:37:15.084Z,27.23
2023-02-27T07:39:42.546Z,27.50
2023-02-27T07:42:10.887Z,27.76
2023-02-27T07:44:40.671Z,26.94
2023-02-27T07:47:08.156Z,27.25
2023-02-27T07:49:35.289Z,27.09
2023-02-27T07:52:02.721Z,27.34
2023-02-27T07:54:30.205Z,27.90
2023-02-27T07:56:57.394Z,27.41
2023-02-27T07:59:24.542Z,27.00
2023-02-27T08:01:52.588Z,26.54
2023-02-27T08:04:20.030Z,26.24
2023-02-27T08:06:47.281Z,25.67
2023-02-27T08:09:14.441Z,26.75
2023-02-27T08:11:41.899Z,27.46
2023-02-27T08:14:09.078Z,26.70
2023-02-27T08:16:36.495Z,25.87
2023-02-27T08:19:04.110Z,27.61
2023-02-27T08:21:31.430Z,26.63
2023-02-27T08:23:58.657Z,28.21
2023-02-27T08:26:26.654Z,28.47
2023-02-27T08:28:54.070Z,28.03
2023-02-27T08:31:21.320Z,27.58
2023-02-27T08:33:55.299Z,27.56
2023-02-27T08:36:25.661Z,27.36
2023-02-27T08:38:53.420Z,28.02
2023-02-27T08:41:20.614Z,27.84
2023-02-27T08:43:47.765Z,27.42
2023-02-27T08:46:15.676Z,27.96
2023-02-27T08:48:43.200Z,27.56
2023-02-27T08:51:10.355Z,27.61
2023-02-27T08:53:38.641Z,28.82
2023-02-27T08:56:06.094Z,28.40
2023-02-27T08:58:33.301Z,27.59
2023-02-27T09:01:00.914Z,27.46
2023-02-27T09:03:28.904Z,27.19
2023-02-27T09:05:56.271Z,26.83
2023-02-27T09:08:23.788Z,27.05
2023-02-27T09:10:50.976Z,26.83
2023-02-27T09:13:18.372Z,27.88
2023-02-27T09:15:47.218Z,28.39
2023-02-27T09:18:14.647Z,28.23
2023-02-27T09:20:43.064Z,29.07
2023-02-27T09:23:10.630Z,28.34
2023-02-27T09:25:37.794Z,28.71
2023-02-27T09:28:05.033Z,28.47
2023-02-27T09:30:33.312Z,29.46
2023-02-27T09:33:00.508Z,29.27
2023-02-27T09:35:27.755Z,28.39
2023-02-27T09:37:56.899Z,28.08
2023-02-27T09:40:25.342Z,28.18
2023-02-27T09:42:53.516Z,28.52
2023-02-27T09:45:23.407Z,28.72
2023-02-27T09:48:00.887Z,27.81
2023-02-27T09:50:32.803Z,26.44
2023-02-27T09:53:00.998Z,27.37
2023-02-27T09:55:30.479Z,27.37
2023-02-27T09:58:16.336Z,27.56
2023-02-27T10:00:51.570Z,28.31
2023-02-27T10:03:31.266Z,28.20
2023-02-27T10:06:06.248Z,28.27
2023-02-27T10:08:40.766Z,29.13
2023-02-27T10:11:08.588Z,29.01
2023-02-27T10:13:42.100Z,28.83
2023-02-27T10:16:10.044Z,28.73
2023-02-27T10:18:58.015Z,28.07
2023-02-27T10:21:30.823Z,27.64
2023-02-27T10:24:01.644Z,28.19
2023-02-27T10:26:33.609Z,28.97
2023-02-27T10:29:03.064Z,27.35
2023-02-27T10:31:31.763Z,26.28
2023-02-27T10:33:59.002Z,27.92
2023-02-27T10:36:34.017Z,28.34
2023-02-27T10:39:03.674Z,27.79
2023-02-27T10:41:31.142Z,27.75
2023-02-27T10:43:58.571Z,27.32
2023-02-27T10:46:26.754Z,26.98
2023-02-27T10:48:55.436Z,27.63
2023-02-27T10:51:26.979Z,27.54
2023-02-27T10:54:14.316Z,27.45
2023-02-27T10:56:41.625Z,26.80
2023-02-27T10:59:17.150Z,26.69
2023-02-27T11:01:45.346Z,26.88
2023-02-27T11:04:13.081Z,27.30
2023-02-27T11:06:40.542Z,27.40
2023-02-27T11:09:21.012Z,27.14
2023-02-27T11:11:48.991Z,27.62
2023-02-27T11:14:19.165Z,26.48
2023-02-27T11:16:50.735Z,27.27
2023-02-27T11:19:44.578Z,27.65
2023-02-27T11:22:15.675Z,27.38
2023-02-27T11:24:43.163Z,27.76
2023-02-27T11:27:26.515Z,27.35
2023-02-27T11:29:58.846Z,27.98
2023-02-27T11:32:45.198Z,26.82
2023-02-27T11:35:21.893Z,28.04
2023-02-27T11:37:49.949Z,27.62
2023-02-27T11:40:19.425Z,26.78
2023-02-27T11:42:50.282Z,26.44
2023-02-27T11:46:14.465Z,26.85
2023-02-27T11:48:11.890Z,26.58
2023-02-27T11:50:45.638Z,26.37
2023-02-27T11:53:31.455Z,26.09
2023-02-27T11:55:59.604Z,27.02
2023-02-27T11:58:27.910Z,25.87
2023-02-27T12:01:00.339Z,26.30
2023-02-27T12:03:30.897Z,26.69
2023-02-27T12:05:59.129Z,25.23
2023-02-27T12:08:36.892Z,26.69
2023-02-27T12:11:15.174Z,25.16
2023-02-27T12:13:44.023Z,25.88
2023-02-27T12:16:19.473Z,26.37
2023-02-27T12:18:49.790Z,26.06
2023-02-27T12:21:17.234Z,27.57
2023-02-27T12:24:10.924Z,27.02
2023-02-27T12:26:39.938Z,26.92
2023-02-27T12:29:09.819Z,26.57
2023-02-27T12:31:37.018Z,26.35
2023-02-27T12:34:19.458Z,25.38
2023-02-27T12:36:48.101Z,25.36
2023-02-27T12:39:17.152Z,25.89
2023-02-27T12:41:50.003Z,25.73
2023-02-27T12:44:24.364Z,26.53
2023-02-27T12:47:13.501Z,27.68
2023-02-27T12:49:44.122Z,27.71
2023-02-27T12:52:20.325Z,25.98
2023-02-27T12:54:56.215Z,26.58
2023-02-27T12:57:28.489Z,26.13
2023-02-27T13:00:11.263Z,25.10
2023-02-27T13:02:41.500Z,24.64
2023-02-27T13:05:08.925Z,24.67
2023-02-27T13:07:43.067Z,26.18
2023-02-27T13:10:16.740Z,26.51
2023-02-27T13:13:01.372Z,25.46
2023-02-27T13:15:34.362Z,26.07
2023-02-27T13:18:02.453Z,24.81
2023-02-27T13:20:30.133Z,25.45
2023-02-27T13:23:00.333Z,25.44
2023-02-27T13:25:27.474Z,26.70
2023-02-27T13:27:55.959Z,26.91
2023-02-27T13:30:24.721Z,26.92
2023-02-27T13:33:10.870Z,26.96
2023-02-27T13:35:58.663Z,25.60
2023-02-27T13:38:41.947Z,26.11
2023-02-27T13:41:21.444Z,26.24
2023-02-27T13:43:52.407Z,26.37
2023-02-27T13:46:29.635Z,25.63
2023-02-27T13:49:05.698Z,25.96
2023-02-27T13:51:35.986Z,26.52
2023-02-27T13:54:15.738Z,26.59
2023-02-27T13:56:53.153Z,26.08
2023-02-27T13:59:23.852Z,26.21
2023-02-27T14:01:52.101Z,26.37
2023-02-27T14:04:20.004Z,24.78
2023-02-27T14:06:47.445Z,24.26
2023-02-27T14:09:18.624Z,24.24
2023-02-27T14:11:53.601Z,25.26
2023-02-27T14:14:40.142Z,24.66
2023-02-27T14:17:09.514Z,24.93
2023-02-27T14:19:42.666Z,24.73
2023-02-27T14:22:12.939Z,24.66
2023-02-27T14:24:49.763Z,23.81
2023-02-27T14:27:23.836Z,23.71
2023-02-27T14:29:51.632Z,25.35
2023-02-27T14:32:22.535Z,24.40
2023-02-27T14:34:50.860Z,24.80
2023-02-27T14:37:21.157Z,24.26
2023-02-27T14:39:49.280Z,23.60
2023-02-27T14:42:23.893Z,23.65
2023-02-27T14:44:51.046Z,24.66
2023-02-27T14:47:19.890Z,23.93
2023-02-27T14:49:47.499Z,24.68
2023-02-27T14:52:18.888Z,23.40
2023-02-27T14:54:48.421Z,24.04
2023-02-27T14:57:16.840Z,24.42
2023-02-27T14:59:45.182Z,24.36
2023-02-27T15:02:15.420Z,24.75
2023-02-27T15:04:42.761Z,25.12
2023-02-27T15:07:13.165Z,25.54
2023-02-27T15:09:43.123Z,25.49
2023-02-27T15:12:10.870Z,24.23
2023-02-27T15:14:38.903Z,23.80
2023-02-27T15:17:22.821Z,23.36
2023-02-27T15:19:51.314Z,24.29
2023-02-27T15:22:38.059Z,24.24
2023-02-27T15:25:07.866Z,24.06
2023-02-27T15:27:37.153Z,23.66
2023-02-27T15:30:04.720Z,23.62
2023-02-27T15:32:33.075Z,24.04
2023-02-27T15:35:01.709Z,23.17
2023-02-27T15:37:30.167Z,24.05
2023-02-27T15:39:57.633Z,24.47
2023-02-27T15:42:26.455Z,24.42
2023-02-27T15:44:53.704Z,25.15
2023-02-27T15:47:25.152Z,25.12
2023-02-27T15:49:54.922Z,25.42
2023-02-27T15:52:23.176Z,25.83
2023-02-27T15:54:54.952Z,25.73
2023-02-27T15:57:22.503Z,25.37
2023-02-27T15:59:49.779Z,26.31
2023-02-27T16:02:21.864Z,25.95
2023-02-27T16:04:49.642Z,25.62
2023-02-27T16:07:20.445Z,25.51
2023-02-27T16:09:51.953Z,25.89
2023-02-27T16:12:25.651Z,25.86
2023-02-27T16:14:53.088Z,26.31
2023-02-27T16:17:30.784Z,26.25
2023-02-27T16:20:01.676Z,26.50
2023-02-27T16:22:30.580Z,26.60
2023-02-27T16:25:07.548Z,27.17
2023-02-27T16:27:35.558Z,27.42
2023-02-27T16:30:05.734Z,27.21
2023-02-27T16:32:44.172Z,26.75
2023-02-27T16:35:16.800Z,26.59
2023-02-27T16:37:46.299Z,26.70
2023-02-27T16:40:21.747Z,26.97
2023-02-27T16:42:49.740Z,27.20
2023-02-27T16:45:18.874Z,27.02
2023-02-27T16:47:51.190Z,26.98
2023-02-27T16:50:20.130Z,26.99
2023-02-27T16:52:47.586Z,26.82
2023-02-27T16:55:15.603Z,26.72
2023-02-27T16:57:46.364Z,27.34
2023-02-27T17:00:14.767Z,27.42
2023-02-27T17:02:43.380Z,27.47
2023-02-27T17:05:11.776Z,27.57
2023-02-27T17:07:40.968Z,27.20
2023-02-27T17:10:09.573Z,26.92
2023-02-27T17:12:37.964Z,27.36
2023-02-27T17:15:05.873Z,27.52
2023-02-27T17:17:33.696Z,27.51
2023-02-27T17:20:02.396Z,27.88
2023-02-27T17:22:30.832Z,28.16
2023-02-27T17:24:59.905Z,27.41
2023-02-27T17:27:28.030Z,27.34
2023-02-27T17:29:56.017Z,27.53
2023-02-27T17:32:24.224Z,27.44
2023-02-27T17:34:55.577Z,27.48
2023-02-27T17:37:23.710Z,27.48
2023-02-27T17:39:51.707Z,27.62
2023-02-27T17:42:20.392Z,27.15
2023-02-27T17:44:48.654Z,27.02
2023-02-27T17:47:16.750Z,27.20
2023-02-27T17:49:45.400Z,27.71
2023-02-27T17:52:13.709Z,27.81
2023-02-27T17:54:41.838Z,28.23
2023-02-27T17:57:12.007Z,27.61
2023-02-27T17:59:41.632Z,27.44
2023-02-27T18:02:13.959Z,27.40
2023-02-27T18:04:46.065Z,27.38
2023-02-27T18:07:14.162Z,27.31
2023-02-27T18:09:42.867Z,27.09
2023-02-27T18:12:10.732Z,27.15
2023-02-27T18:14:40.304Z,27.17
2023-02-27T18:17:13.062Z,27.53
2023-02-27T18:19:44.278Z,27.67
2023-02-27T18:22:15.868Z,27.32
2023-02-27T18:24:43.966Z,27.43
2023-02-27T18:27:16.122Z,27.61
2023-02-27T18:29:44.760Z,27.74
2023-02-27T18:32:14.546Z,27.68
2023-02-27T18:34:43.980Z,27.65
2023-02-27T18:37:15.995Z,28.21
2023-02-27T18:39:45.136Z,28.46
2023-02-27T18:42:14.267Z,28.77
2023-02-27T18:44:43.446Z,28.46
2023-02-27T18:47:13.493Z,29.08
2023-02-27T18:49:42.569Z,29.28
2023-02-27T18:52:11.049Z,29.24
2023-02-27T18:54:41.439Z,30.36
2023-02-27T18:57:10.951Z,31.81
2023-02-27T18:59:41.999Z,30.99
2023-02-27T19:02:14.887Z,30.56
2023-02-27T19:04:44.573Z,32.12
2023-02-27T19:07:13.428Z,30.11
2023-02-27T19:09:45.215Z,33.09
2023-02-27T19:12:14.110Z,32.42
2023-02-27T19:14:42.954Z,31.52
2023-02-27T19:17:11.683Z,30.95
2023-02-27T19:19:42.790Z,33.10
2023-02-27T19:22:11.372Z,32.52
2023-02-27T19:24:40.770Z,31.89
2023-02-27T19:27:12.782Z,31.42
2023-02-27T19:29:42.024Z,32.95
2023-02-27T19:32:10.867Z,34.94
2023-02-27T19:34:39.348Z,35.68
2023-02-27T19:37:09.099Z,33.53
2023-02-27T19:39:40.047Z,35.00
2023-02-27T19:42:10.150Z,35.18
2023-02-27T19:44:41.558Z,35.01
2023-02-27T19:47:13.549Z,35.57
2023-02-27T19:49:42.447Z,35.90
2023-02-27T19:52:11.582Z,35.64
2023-02-27T19:54:40.463Z,35.02
2023-02-27T19:57:14.096Z,33.85
2023-02-27T19:59:43.420Z,33.43
2023-02-27T20:02:12.278Z,34.15
2023-02-27T20:04:42.412Z,32.41
2023-02-27T20:07:11.481Z,33.82
2023-02-27T20:09:40.452Z,34.54
2023-02-27T20:12:11.690Z,33.76
2023-02-27T20:14:40.269Z,33.68
2023-02-27T20:17:09.069Z,34.00
2023-02-27T20:19:38.486Z,33.92
2023-02-27T20:22:06.605Z,35.09
2023-02-27T20:24:34.920Z,34.91
2023-02-27T20:27:04.589Z,37.01
2023-02-27T20:29:33.080Z,36.01
2023-02-27T20:32:04.511Z,35.86
2023-02-27T20:34:33.193Z,35.99
2023-02-27T20:37:01.920Z,37.34
2023-02-27T20:39:30.591Z,37.16
2023-02-27T20:41:59.035Z,35.09
2023-02-27T20:44:28.138Z,36.33
2023-02-27T20:46:57.600Z,35.97
2023-02-27T20:49:26.568Z,35.21
2023-02-27T20:51:55.624Z,35.08
2023-02-27T20:54:24.797Z,34.98
2023-02-27T20:56:53.431Z,34.77
2023-02-27T20:59:22.957Z,34.06
2023-02-27T21:01:53.968Z,32.89
2023-02-27T21:04:24.602Z,31.36
2023-02-27T21:06:52.187Z,33.45
2023-02-27T21:09:19.923Z,33.74
2023-02-27T21:11:48.319Z,32.80
2023-02-27T21:14:16.024Z,33.94
2023-02-27T21:16:43.398Z,33.00
2023-02-27T21:19:11.613Z,32.93
2023-02-27T21:21:39.318Z,32.15
2023-02-27T21:24:09.250Z,32.16
2023-02-27T21:26:38.931Z,31.50
2023-02-27T21:29:13.226Z,30.75
2023-02-27T21:31:41.595Z,31.58
2023-02-27T21:34:11.564Z,30.77
2023-02-27T21:36:42.936Z,31.25
2023-02-27T21:39:14.954Z,31.17
2023-02-27T21:41:42.374Z,31.22
2023-02-27T21:44:11.224Z,31.01
2023-02-27T21:46:38.868Z,29.75
2023-02-27T21:49:06.123Z,30.25
2023-02-27T21:51:40.614Z,30.43
2023-02-27T21:54:09.767Z,30.31
2023-02-27T21:56:36.941Z,30.47
2023-02-27T21:59:04.310Z,31.45
2023-02-27T22:01:32.681Z,31.23
2023-02-27T22:04:01.922Z,31.82
2023-02-27T22:06:31.406Z,32.47
2023-02-27T22:08:59.547Z,31.45
2023-02-27T22:11:27.939Z,31.41
2023-02-27T22:13:55.321Z,31.66
2023-02-27T22:16:22.484Z,33.40
2023-02-27T22:18:52.477Z,33.83
2023-02-27T22:21:21.506Z,33.59
2023-02-27T22:23:48.814Z,32.04
2023-02-27T22:26:17.421Z,33.46
2023-02-27T22:28:44.758Z,33.84
2023-02-27T22:31:17.354Z,33.03
2023-02-27T22:33:46.110Z,32.09
2023-02-27T22:36:18.817Z,32.83
2023-02-27T22:38:46.691Z,32.21
2023-02-27T22:41:34.119Z,30.98
2023-02-27T22:44:01.788Z,30.45
2023-02-27T22:46:30.499Z,30.51
2023-02-27T22:49:01.913Z,30.24
2023-02-27T22:51:29.918Z,30.00
2023-02-27T22:53:57.847Z,29.96
2023-02-27T22:56:25.026Z,29.28
2023-02-27T22:58:52.660Z,29.72
2023-02-27T23:01:20.547Z,29.59
2023-02-27T23:03:48.599Z,29.45
2023-02-27T23:06:17.021Z,29.85
2023-02-27T23:08:44.562Z,30.18
2023-02-27T23:11:12.875Z,29.23
2023-02-27T23:13:40.455Z,29.45
2023-02-27T23:16:11.719Z,29.12
2023-02-27T23:18:48.341Z,29.68
2023-02-27T23:21:16.525Z,29.27
2023-02-27T23:23:43.820Z,30.66
2023-02-27T23:26:11.098Z,29.96
2023-02-27T23:28:38.590Z,30.14
2023-02-27T23:31:06.199Z,29.18
2023-02-27T23:33:33.486Z,29.88
2023-02-27T23:36:01.517Z,29.30
2023-02-27T23:38:28.936Z,31.04
2023-02-27T23:40:56.311Z,30.14
2023-02-27T23:43:23.853Z,29.46
2023-02-27T23:45:51.050Z,29.58
2023-02-27T23:48:18.242Z,29.83
2023-02-27T23:50:45.765Z,30.01
2023-02-27T23:53:16.212Z,29.74
2023-02-27T23:55:43.879Z,29.91
2023-02-27T23:58:11.328Z,30.13
